sensor_id;sensor_type;location;lat;lon;timestamp;temperature;humidity
67249;SHT31;63247;54.300;18.592;2023-02-23T00:00:16;-0.35;97.81
67249;SHT31;63247;54.300;18.592;2023-02-23T00:02:47;-0.21;97.52
67249;SHT31;63247;54.300;18.592;2023-02-23T00:05:13;-0.29;97.74
67249;SHT31;63247;54.300;18.592;2023-02-23T00:07:41;-0.37;97.99
67249;SHT31;63247;54.300;18.592;2023-02-23T00:10:09;-0.46;98.33
67249;SHT31;63247;54.300;18.592;2023-02-23T00:12:36;-0.53;98.46
67249;SHT31;63247;54.300;18.592;2023-02-23T00:15:01;-0.52;98.73
67249;SHT31;63247;54.300;18.592;2023-02-23T00:17:27;-0.43;98.46
67249;SHT31;63247;54.300;18.592;2023-02-23T00:19:54;-0.53;98.54
67249;SHT31;63247;54.300;18.592;2023-02-23T00:22:19;-0.55;98.81
67249;SHT31;63247;54.300;18.592;2023-02-23T00:24:45;-0.57;98.90
67249;SHT31;63247;54.300;18.592;2023-02-23T00:27:12;-0.64;99.02
67249;SHT31;63247;54.300;18.592;2023-02-23T00:29:42;-0.55;98.86
67249;SHT31;63247;54.300;18.592;2023-02-23T00:32:07;-0.56;98.69
67249;SHT31;63247;54.300;18.592;2023-02-23T00:34:35;-0.60;98.98
67249;SHT31;63247;54.300;18.592;2023-02-23T00:37:00;-0.60;99.04
67249;SHT31;63247;54.300;18.592;2023-02-23T00:39:26;-0.74;99.25
67249;SHT31;63247;54.300;18.592;2023-02-23T00:41:54;-0.72;99.23
67249;SHT31;63247;54.300;18.592;2023-02-23T00:44:20;-0.81;99.18
67249;SHT31;63247;54.300;18.592;2023-02-23T00:46:48;-0.80;99.62
67249;SHT31;63247;54.300;18.592;2023-02-23T00:49:16;-0.76;99.20
67249;SHT31;63247;54.300;18.592;2023-02-23T00:51:42;-0.84;99.48
67249;SHT31;63247;54.300;18.592;2023-02-23T00:54:12;-0.81;99.38
67249;SHT31;63247;54.300;18.592;2023-02-23T00:56:38;-0.91;99.60
67249;SHT31;63247;54.300;18.592;2023-02-23T00:59:03;-0.97;99.84
67249;SHT31;63247;54.300;18.592;2023-02-23T01:01:29;-1.05;99.99
67249;SHT31;63247;54.300;18.592;2023-02-23T01:03:55;-1.09;99.99
67249;SHT31;63247;54.300;18.592;2023-02-23T01:06:20;-1.11;99.99
67249;SHT31;63247;54.300;18.592;2023-02-23T01:08:48;-1.16;99.99
67249;SHT31;63247;54.300;18.592;2023-02-23T01:11:17;-1.12;99.95
67249;SHT31;63247;54.300;18.592;2023-02-23T01:13:45;-1.15;99.60
67249;SHT31;63247;54.300;18.592;2023-02-23T01:16:15;-1.08;99.27
67249;SHT31;63247;54.300;18.592;2023-02-23T01:18:42;-1.07;98.97
67249;SHT31;63247;54.300;18.592;2023-02-23T01:21:20;-1.14;99.12
67249;SHT31;63247;54.300;18.592;2023-02-23T01:23:47;-1.15;98.84
67249;SHT31;63247;54.300;18.592;2023-02-23T01:26:24;-1.12;98.63
67249;SHT31;63247;54.300;18.592;2023-02-23T01:28:50;-1.09;97.79
67249;SHT31;63247;54.300;18.592;2023-02-23T01:31:16;-1.12;97.59
67249;SHT31;63247;54.300;18.592;2023-02-23T01:33:41;-1.11;96.73
67249;SHT31;63247;54.300;18.592;2023-02-23T01:36:07;-1.19;96.92
67249;SHT31;63247;54.300;18.592;2023-02-23T01:38:33;-1.19;96.49
67249;SHT31;63247;54.300;18.592;2023-02-23T01:40:58;-1.28;96.62
67249;SHT31;63247;54.300;18.592;2023-02-23T01:43:23;-1.28;96.51
67249;SHT31;63247;54.300;18.592;2023-02-23T01:45:58;-1.38;96.63
67249;SHT31;63247;54.300;18.592;2023-02-23T01:48:35;-1.31;96.27
67249;SHT31;63247;54.300;18.592;2023-02-23T01:51:03;-1.31;96.07
67249;SHT31;63247;54.300;18.592;2023-02-23T01:53:34;-1.35;96.22
67249;SHT31;63247;54.300;18.592;2023-02-23T01:56:06;-1.31;95.59
67249;SHT31;63247;54.300;18.592;2023-02-23T01:58:38;-1.24;95.55
67249;SHT31;63247;54.300;18.592;2023-02-23T02:01:05;-1.25;95.51
67249;SHT31;63247;54.300;18.592;2023-02-23T02:03:35;-1.21;95.34
67249;SHT31;63247;54.300;18.592;2023-02-23T02:06:02;-1.24;95.39
67249;SHT31;63247;54.300;18.592;2023-02-23T02:08:29;-1.34;95.67
67249;SHT31;63247;54.300;18.592;2023-02-23T02:10:56;-1.36;96.12
67249;SHT31;63247;54.300;18.592;2023-02-23T02:13:29;-1.35;95.82
67249;SHT31;63247;54.300;18.592;2023-02-23T02:29:49;-1.46;94.74
67249;SHT31;63247;54.300;18.592;2023-02-23T02:38:59;-1.43;92.57
67249;SHT31;63247;54.300;18.592;2023-02-23T02:41:41;-1.32;92.23
67249;SHT31;63247;54.300;18.592;2023-02-23T02:46:37;-1.43;91.96
67249;SHT31;63247;54.300;18.592;2023-02-23T02:49:14;-1.39;91.62
67249;SHT31;63247;54.300;18.592;2023-02-23T02:51:54;-1.45;91.48
67249;SHT31;63247;54.300;18.592;2023-02-23T02:54:30;-1.52;91.98
67249;SHT31;63247;54.300;18.592;2023-02-23T02:57:00;-1.45;91.78
67249;SHT31;63247;54.300;18.592;2023-02-23T02:59:26;-1.43;91.64
67249;SHT31;63247;54.300;18.592;2023-02-23T03:02:31;-1.52;92.34
67249;SHT31;63247;54.300;18.592;2023-02-23T03:05:21;-1.51;92.67
67249;SHT31;63247;54.300;18.592;2023-02-23T03:08:12;-1.55;92.99
67249;SHT31;63247;54.300;18.592;2023-02-23T03:11:03;-1.58;93.45
67249;SHT31;63247;54.300;18.592;2023-02-23T03:26:10;-1.62;92.54
67249;SHT31;63247;54.300;18.592;2023-02-23T03:31:52;-1.58;91.75
67249;SHT31;63247;54.300;18.592;2023-02-23T03:38:00;-1.56;91.24
67249;SHT31;63247;54.300;18.592;2023-02-23T03:40:47;-1.55;91.16
67249;SHT31;63247;54.300;18.592;2023-02-23T03:43:40;-1.60;91.49
67249;SHT31;63247;54.300;18.592;2023-02-23T03:46:28;-1.67;91.50
67249;SHT31;63247;54.300;18.592;2023-02-23T03:49:14;-1.60;91.43
67249;SHT31;63247;54.300;18.592;2023-02-23T03:52:05;-1.72;91.92
67249;SHT31;63247;54.300;18.592;2023-02-23T03:55:01;-1.74;91.98
67249;SHT31;63247;54.300;18.592;2023-02-23T03:57:49;-1.73;91.42
67249;SHT31;63247;54.300;18.592;2023-02-23T04:00:37;-1.74;91.88
67249;SHT31;63247;54.300;18.592;2023-02-23T04:03:23;-1.79;91.79
67249;SHT31;63247;54.300;18.592;2023-02-23T04:06:11;-1.72;91.21
67249;SHT31;63247;54.300;18.592;2023-02-23T04:08:58;-1.74;91.41
67249;SHT31;63247;54.300;18.592;2023-02-23T04:11:56;-1.64;90.94
67249;SHT31;63247;54.300;18.592;2023-02-23T04:14:56;-1.77;91.10
67249;SHT31;63247;54.300;18.592;2023-02-23T04:17:28;-1.72;91.21
67249;SHT31;63247;54.300;18.592;2023-02-23T04:19:54;-1.84;91.64
67249;SHT31;63247;54.300;18.592;2023-02-23T04:22:20;-1.83;91.61
67249;SHT31;63247;54.300;18.592;2023-02-23T04:24:46;-1.80;91.59
67249;SHT31;63247;54.300;18.592;2023-02-23T04:27:12;-1.76;91.93
67249;SHT31;63247;54.300;18.592;2023-02-23T04:29:38;-1.89;92.25
67249;SHT31;63247;54.300;18.592;2023-02-23T04:32:04;-1.84;92.13
67249;SHT31;63247;54.300;18.592;2023-02-23T04:34:30;-1.95;92.59
67249;SHT31;63247;54.300;18.592;2023-02-23T04:36:55;-1.94;92.23
67249;SHT31;63247;54.300;18.592;2023-02-23T04:39:20;-1.87;92.07
67249;SHT31;63247;54.300;18.592;2023-02-23T04:41:46;-1.93;92.11
67249;SHT31;63247;54.300;18.592;2023-02-23T04:44:14;-1.87;91.77
67249;SHT31;63247;54.300;18.592;2023-02-23T04:46:40;-1.84;91.68
67249;SHT31;63247;54.300;18.592;2023-02-23T04:49:05;-1.87;91.76
67249;SHT31;63247;54.300;18.592;2023-02-23T04:51:31;-1.90;91.45
67249;SHT31;63247;54.300;18.592;2023-02-23T04:53:58;-1.90;91.59
67249;SHT31;63247;54.300;18.592;2023-02-23T04:56:23;-1.94;91.76
67249;SHT31;63247;54.300;18.592;2023-02-23T04:58:49;-1.93;91.19
67249;SHT31;63247;54.300;18.592;2023-02-23T05:01:15;-1.90;91.15
67249;SHT31;63247;54.300;18.592;2023-02-23T05:03:40;-1.93;91.33
67249;SHT31;63247;54.300;18.592;2023-02-23T05:06:06;-1.95;91.40
67249;SHT31;63247;54.300;18.592;2023-02-23T05:08:31;-2.00;90.64
67249;SHT31;63247;54.300;18.592;2023-02-23T05:10:56;-1.95;90.77
67249;SHT31;63247;54.300;18.592;2023-02-23T05:13:22;-1.94;90.79
67249;SHT31;63247;54.300;18.592;2023-02-23T05:15:47;-2.00;90.93
67249;SHT31;63247;54.300;18.592;2023-02-23T05:18:13;-2.01;90.83
67249;SHT31;63247;54.300;18.592;2023-02-23T05:20:41;-2.04;90.87
67249;SHT31;63247;54.300;18.592;2023-02-23T05:23:07;-1.97;90.63
67249;SHT31;63247;54.300;18.592;2023-02-23T05:25:32;-2.08;90.72
67249;SHT31;63247;54.300;18.592;2023-02-23T05:27:58;-2.05;90.91
67249;SHT31;63247;54.300;18.592;2023-02-23T05:30:23;-2.08;91.10
67249;SHT31;63247;54.300;18.592;2023-02-23T05:32:49;-2.08;90.86
67249;SHT31;63247;54.300;18.592;2023-02-23T05:35:15;-2.12;91.11
67249;SHT31;63247;54.300;18.592;2023-02-23T05:37:40;-2.10;90.93
67249;SHT31;63247;54.300;18.592;2023-02-23T05:40:07;-2.17;91.37
67249;SHT31;63247;54.300;18.592;2023-02-23T05:42:32;-2.02;90.96
67249;SHT31;63247;54.300;18.592;2023-02-23T05:44:58;-2.02;91.04
67249;SHT31;63247;54.300;18.592;2023-02-23T05:47:23;-2.15;91.04
67249;SHT31;63247;54.300;18.592;2023-02-23T05:49:48;-2.14;91.23
67249;SHT31;63247;54.300;18.592;2023-02-23T05:52:14;-2.17;91.34
67249;SHT31;63247;54.300;18.592;2023-02-23T05:54:39;-2.15;91.63
67249;SHT31;63247;54.300;18.592;2023-02-23T05:57:04;-2.21;91.74
67249;SHT31;63247;54.300;18.592;2023-02-23T05:59:30;-2.20;91.72
67249;SHT31;63247;54.300;18.592;2023-02-23T06:01:55;-2.17;92.22
67249;SHT31;63247;54.300;18.592;2023-02-23T06:04:21;-2.15;91.85
67249;SHT31;63247;54.300;18.592;2023-02-23T06:06:47;-2.11;91.47
67249;SHT31;63247;54.300;18.592;2023-02-23T06:09:12;-2.10;91.66
67249;SHT31;63247;54.300;18.592;2023-02-23T06:11:38;-2.05;91.36
67249;SHT31;63247;54.300;18.592;2023-02-23T06:14:03;-2.04;91.50
67249;SHT31;63247;54.300;18.592;2023-02-23T06:16:28;-2.08;91.65
67249;SHT31;63247;54.300;18.592;2023-02-23T06:18:54;-2.07;91.79
67249;SHT31;63247;54.300;18.592;2023-02-23T06:21:19;-2.08;91.80
67249;SHT31;63247;54.300;18.592;2023-02-23T06:23:45;-2.05;91.44
67249;SHT31;63247;54.300;18.592;2023-02-23T06:26:10;-2.02;91.28
67249;SHT31;63247;54.300;18.592;2023-02-23T06:28:36;-2.01;91.60
67249;SHT31;63247;54.300;18.592;2023-02-23T06:31:01;-2.02;91.42
67249;SHT31;63247;54.300;18.592;2023-02-23T06:33:27;-1.93;90.98
67249;SHT31;63247;54.300;18.592;2023-02-23T06:35:52;-1.93;91.07
67249;SHT31;63247;54.300;18.592;2023-02-23T06:38:19;-1.94;90.86
67249;SHT31;63247;54.300;18.592;2023-02-23T06:40:44;-1.91;91.07
67249;SHT31;63247;54.300;18.592;2023-02-23T06:43:10;-1.83;90.72
67249;SHT31;63247;54.300;18.592;2023-02-23T06:45:35;-1.74;90.38
67249;SHT31;63247;54.300;18.592;2023-02-23T06:48:01;-1.69;90.17
67249;SHT31;63247;54.300;18.592;2023-02-23T06:50:26;-1.69;90.48
67249;SHT31;63247;54.300;18.592;2023-02-23T06:52:52;-1.56;90.17
67249;SHT31;63247;54.300;18.592;2023-02-23T06:55:17;-1.51;89.70
67249;SHT31;63247;54.300;18.592;2023-02-23T06:57:42;-1.49;89.69
67249;SHT31;63247;54.300;18.592;2023-02-23T07:00:12;-1.39;89.17
67249;SHT31;63247;54.300;18.592;2023-02-23T07:02:40;-1.31;89.36
67249;SHT31;63247;54.300;18.592;2023-02-23T07:05:10;-1.24;89.21
67249;SHT31;63247;54.300;18.592;2023-02-23T07:07:35;-1.16;88.72
67249;SHT31;63247;54.300;18.592;2023-02-23T07:10:01;-0.98;88.50
67249;SHT31;63247;54.300;18.592;2023-02-23T07:12:29;-0.95;88.30
67249;SHT31;63247;54.300;18.592;2023-02-23T07:14:55;-0.91;87.86
67249;SHT31;63247;54.300;18.592;2023-02-23T07:17:21;-0.79;87.73
67249;SHT31;63247;54.300;18.592;2023-02-23T07:19:46;-0.72;87.00
67249;SHT31;63247;54.300;18.592;2023-02-23T07:22:12;-0.50;86.65
67249;SHT31;63247;54.300;18.592;2023-02-23T07:24:37;-0.53;86.25
67249;SHT31;63247;54.300;18.592;2023-02-23T07:27:03;-0.43;85.52
67249;SHT31;63247;54.300;18.592;2023-02-23T07:29:28;-0.35;85.09
67249;SHT31;63247;54.300;18.592;2023-02-23T07:31:54;-0.35;85.17
67249;SHT31;63247;54.300;18.592;2023-02-23T07:34:19;-0.15;85.20
67249;SHT31;63247;54.300;18.592;2023-02-23T07:36:45;0.12;84.81
67249;SHT31;63247;54.300;18.592;2023-02-23T07:39:10;0.10;84.37
67249;SHT31;63247;54.300;18.592;2023-02-23T07:41:36;0.20;84.59
67249;SHT31;63247;54.300;18.592;2023-02-23T07:44:01;-0.11;83.96
67249;SHT31;63247;54.300;18.592;2023-02-23T07:46:27;-0.02;84.37
67249;SHT31;63247;54.300;18.592;2023-02-23T07:48:52;0.09;84.57
67249;SHT31;63247;54.300;18.592;2023-02-23T07:51:17;-0.11;84.71
67249;SHT31;63247;54.300;18.592;2023-02-23T07:53:43;-0.08;84.42
67249;SHT31;63247;54.300;18.592;2023-02-23T07:56:09;-0.23;84.84
67249;SHT31;63247;54.300;18.592;2023-02-23T07:58:36;-0.01;84.89
67249;SHT31;63247;54.300;18.592;2023-02-23T08:01:02;-0.09;84.19
67249;SHT31;63247;54.300;18.592;2023-02-23T08:03:28;0.03;84.41
67249;SHT31;63247;54.300;18.592;2023-02-23T08:05:53;0.12;83.82
67249;SHT31;63247;54.300;18.592;2023-02-23T08:08:19;0.23;83.76
67249;SHT31;63247;54.300;18.592;2023-02-23T08:10:45;0.47;83.04
67249;SHT31;63247;54.300;18.592;2023-02-23T08:13:12;0.81;82.31
67249;SHT31;63247;54.300;18.592;2023-02-23T08:15:37;0.82;81.65
67249;SHT31;63247;54.300;18.592;2023-02-23T08:18:02;0.67;81.35
67249;SHT31;63247;54.300;18.592;2023-02-23T08:20:29;0.82;81.37
67249;SHT31;63247;54.300;18.592;2023-02-23T08:22:56;0.65;81.80
67249;SHT31;63247;54.300;18.592;2023-02-23T08:25:22;0.50;82.64
67249;SHT31;63247;54.300;18.592;2023-02-23T08:27:48;0.10;83.43
67249;SHT31;63247;54.300;18.592;2023-02-23T08:30:17;0.01;83.97
67249;SHT31;63247;54.300;18.592;2023-02-23T08:32:43;0.01;84.12
67249;SHT31;63247;54.300;18.592;2023-02-23T08:35:09;0.05;84.57
67249;SHT31;63247;54.300;18.592;2023-02-23T08:37:34;0.02;84.90
67249;SHT31;63247;54.300;18.592;2023-02-23T08:39:59;0.05;84.36
67249;SHT31;63247;54.300;18.592;2023-02-23T08:42:26;0.03;84.72
67249;SHT31;63247;54.300;18.592;2023-02-23T08:44:51;0.14;85.02
67249;SHT31;63247;54.300;18.592;2023-02-23T08:47:17;0.30;84.23
67249;SHT31;63247;54.300;18.592;2023-02-23T08:49:46;0.33;83.62
67249;SHT31;63247;54.300;18.592;2023-02-23T08:52:11;0.41;83.83
67249;SHT31;63247;54.300;18.592;2023-02-23T08:54:37;0.22;83.56
67249;SHT31;63247;54.300;18.592;2023-02-23T08:57:02;0.40;83.60
67249;SHT31;63247;54.300;18.592;2023-02-23T08:59:27;0.37;83.53
67249;SHT31;63247;54.300;18.592;2023-02-23T09:01:53;0.46;82.73
67249;SHT31;63247;54.300;18.592;2023-02-23T09:04:18;0.57;82.94
67249;SHT31;63247;54.300;18.592;2023-02-23T09:06:45;0.47;82.97
67249;SHT31;63247;54.300;18.592;2023-02-23T09:09:12;0.70;82.93
67249;SHT31;63247;54.300;18.592;2023-02-23T09:11:37;0.85;82.38
67249;SHT31;63247;54.300;18.592;2023-02-23T09:14:03;0.93;82.09
67249;SHT31;63247;54.300;18.592;2023-02-23T09:16:28;1.06;81.99
67249;SHT31;63247;54.300;18.592;2023-02-23T09:18:54;1.13;81.80
67249;SHT31;63247;54.300;18.592;2023-02-23T09:21:20;1.30;81.84
67249;SHT31;63247;54.300;18.592;2023-02-23T09:23:49;1.01;81.39
67249;SHT31;63247;54.300;18.592;2023-02-23T09:26:16;1.38;81.36
67249;SHT31;63247;54.300;18.592;2023-02-23T09:28:43;1.47;80.46
67249;SHT31;63247;54.300;18.592;2023-02-23T09:31:10;1.66;80.09
67249;SHT31;63247;54.300;18.592;2023-02-23T09:33:37;1.93;79.86
67249;SHT31;63247;54.300;18.592;2023-02-23T09:36:08;2.32;79.31
67249;SHT31;63247;54.300;18.592;2023-02-23T09:38:33;2.07;79.28
67249;SHT31;63247;54.300;18.592;2023-02-23T09:40:59;2.15;79.63
67249;SHT31;63247;54.300;18.592;2023-02-23T09:43:35;2.05;79.98
67249;SHT31;63247;54.300;18.592;2023-02-23T09:48:28;2.24;79.26
67249;SHT31;63247;54.300;18.592;2023-02-23T09:50:56;2.08;80.10
67249;SHT31;63247;54.300;18.592;2023-02-23T09:53:43;2.28;80.29
67249;SHT31;63247;54.300;18.592;2023-02-23T09:56:15;2.29;79.19
67249;SHT31;63247;54.300;18.592;2023-02-23T09:58:42;2.94;78.64
67249;SHT31;63247;54.300;18.592;2023-02-23T10:04:22;3.55;76.31
67249;SHT31;63247;54.300;18.592;2023-02-23T10:10:07;3.55;75.77
67249;SHT31;63247;54.300;18.592;2023-02-23T10:16:00;4.37;73.49
67249;SHT31;63247;54.300;18.592;2023-02-23T10:23:34;4.97;71.67
67249;SHT31;63247;54.300;18.592;2023-02-23T10:26:01;4.89;72.27
67249;SHT31;63247;54.300;18.592;2023-02-23T10:28:32;5.69;72.12
67249;SHT31;63247;54.300;18.592;2023-02-23T10:30:58;5.37;72.03
67249;SHT31;63247;54.300;18.592;2023-02-23T10:33:37;5.17;72.09
67249;SHT31;63247;54.300;18.592;2023-02-23T10:36:12;5.52;71.39
67249;SHT31;63247;54.300;18.592;2023-02-23T10:38:39;5.01;72.21
67249;SHT31;63247;54.300;18.592;2023-02-23T10:41:05;5.11;71.68
67249;SHT31;63247;54.300;18.592;2023-02-23T10:43:32;4.97;72.93
67249;SHT31;63247;54.300;18.592;2023-02-23T10:45:58;4.81;72.51
67249;SHT31;63247;54.300;18.592;2023-02-23T10:48:27;4.52;72.96
67249;SHT31;63247;54.300;18.592;2023-02-23T10:50:56;4.87;73.27
67249;SHT31;63247;54.300;18.592;2023-02-23T10:53:35;4.53;74.54
67249;SHT31;63247;54.300;18.592;2023-02-23T10:56:09;4.07;75.32
67249;SHT31;63247;54.300;18.592;2023-02-23T11:01:34;3.90;76.49
67249;SHT31;63247;54.300;18.592;2023-02-23T11:06:47;3.24;78.23
67249;SHT31;63247;54.300;18.592;2023-02-23T11:09:28;3.12;77.98
67249;SHT31;63247;54.300;18.592;2023-02-23T11:12:03;2.91;78.59
67249;SHT31;63247;54.300;18.592;2023-02-23T11:14:41;2.90;78.46
67249;SHT31;63247;54.300;18.592;2023-02-23T11:17:23;2.77;79.35
67249;SHT31;63247;54.300;18.592;2023-02-23T11:19:50;2.90;79.74
67249;SHT31;63247;54.300;18.592;2023-02-23T11:22:19;2.83;79.45
67249;SHT31;63247;54.300;18.592;2023-02-23T11:24:51;2.90;79.83
67249;SHT31;63247;54.300;18.592;2023-02-23T11:27:21;2.83;79.59
67249;SHT31;63247;54.300;18.592;2023-02-23T11:29:48;2.88;79.83
67249;SHT31;63247;54.300;18.592;2023-02-23T11:32:20;2.95;79.58
67249;SHT31;63247;54.300;18.592;2023-02-23T11:34:47;2.94;79.94
67249;SHT31;63247;54.300;18.592;2023-02-23T11:39:54;3.00;80.30
67249;SHT31;63247;54.300;18.592;2023-02-23T11:42:28;3.05;80.12
67249;SHT31;63247;54.300;18.592;2023-02-23T11:45:15;3.09;80.28
67249;SHT31;63247;54.300;18.592;2023-02-23T11:47:49;3.01;80.17
67249;SHT31;63247;54.300;18.592;2023-02-23T11:52:54;3.05;80.29
67249;SHT31;63247;54.300;18.592;2023-02-23T11:55:20;3.03;80.09
67249;SHT31;63247;54.300;18.592;2023-02-23T11:57:45;3.25;80.18
67249;SHT31;63247;54.300;18.592;2023-02-23T12:00:22;3.15;79.39
67249;SHT31;63247;54.300;18.592;2023-02-23T12:02:59;3.11;80.10
67249;SHT31;63247;54.300;18.592;2023-02-23T12:05:27;3.12;80.27
67249;SHT31;63247;54.300;18.592;2023-02-23T12:08:10;3.09;80.34
67249;SHT31;63247;54.300;18.592;2023-02-23T12:10:42;3.07;80.20
67249;SHT31;63247;54.300;18.592;2023-02-23T12:13:21;3.01;80.15
67249;SHT31;63247;54.300;18.592;2023-02-23T12:15:53;3.11;80.52
67249;SHT31;63247;54.300;18.592;2023-02-23T12:18:36;3.14;80.27
67249;SHT31;63247;54.300;18.592;2023-02-23T12:26:46;3.35;79.80
67249;SHT31;63247;54.300;18.592;2023-02-23T12:29:36;3.28;80.31
67249;SHT31;63247;54.300;18.592;2023-02-23T12:32:10;3.33;80.56
67249;SHT31;63247;54.300;18.592;2023-02-23T12:37:45;3.49;80.39
67249;SHT31;63247;54.300;18.592;2023-02-23T12:40:21;3.48;80.36
67249;SHT31;63247;54.300;18.592;2023-02-23T12:43:18;3.59;80.04
67249;SHT31;63247;54.300;18.592;2023-02-23T12:45:56;3.55;80.45
67249;SHT31;63247;54.300;18.592;2023-02-23T12:52:18;4.01;79.28
67249;SHT31;63247;54.300;18.592;2023-02-23T12:54:11;3.86;79.62
67249;SHT31;63247;54.300;18.592;2023-02-23T13:02:27;3.89;80.52
67249;SHT31;63247;54.300;18.592;2023-02-23T13:05:20;4.28;80.31
67249;SHT31;63247;54.300;18.592;2023-02-23T13:07:59;4.25;78.62
67249;SHT31;63247;54.300;18.592;2023-02-23T13:21:34;4.24;79.37
67249;SHT31;63247;54.300;18.592;2023-02-23T13:29:46;4.25;79.55
67249;SHT31;63247;54.300;18.592;2023-02-23T13:32:16;4.24;80.30
67249;SHT31;63247;54.300;18.592;2023-02-23T13:34:52;4.37;80.36
67249;SHT31;63247;54.300;18.592;2023-02-23T13:37:24;4.45;79.99
67249;SHT31;63247;54.300;18.592;2023-02-23T13:42:59;4.14;80.67
67249;SHT31;63247;54.300;18.592;2023-02-23T13:48:29;4.25;80.54
67249;SHT31;63247;54.300;18.592;2023-02-23T13:51:20;4.21;80.55
67249;SHT31;63247;54.300;18.592;2023-02-23T13:56:24;4.18;81.20
67249;SHT31;63247;54.300;18.592;2023-02-23T13:58:58;4.14;80.73
67249;SHT31;63247;54.300;18.592;2023-02-23T14:01:32;4.12;81.67
67249;SHT31;63247;54.300;18.592;2023-02-23T14:04:06;4.20;81.67
67249;SHT31;63247;54.300;18.592;2023-02-23T14:06:39;4.20;81.57
67249;SHT31;63247;54.300;18.592;2023-02-23T14:09:33;4.22;81.12
67249;SHT31;63247;54.300;18.592;2023-02-23T14:21:44;3.97;81.29
67249;SHT31;63247;54.300;18.592;2023-02-23T14:24:01;3.98;81.79
67249;SHT31;63247;54.300;18.592;2023-02-23T14:32:25;4.12;82.45
67249;SHT31;63247;54.300;18.592;2023-02-23T14:35:01;4.10;82.23
67249;SHT31;63247;54.300;18.592;2023-02-23T14:37:38;4.10;82.52
67249;SHT31;63247;54.300;18.592;2023-02-23T14:40:17;4.10;82.77
67249;SHT31;63247;54.300;18.592;2023-02-23T14:42:50;4.08;82.38
67249;SHT31;63247;54.300;18.592;2023-02-23T14:45:22;4.00;82.94
67249;SHT31;63247;54.300;18.592;2023-02-23T14:47:56;4.01;82.56
67249;SHT31;63247;54.300;18.592;2023-02-23T14:50:26;4.00;82.99
67249;SHT31;63247;54.300;18.592;2023-02-23T14:52:54;4.04;83.31
67249;SHT31;63247;54.300;18.592;2023-02-23T14:57:47;4.01;82.89
67249;SHT31;63247;54.300;18.592;2023-02-23T15:02:39;4.01;83.53
67249;SHT31;63247;54.300;18.592;2023-02-23T15:05:17;4.07;83.88
67249;SHT31;63247;54.300;18.592;2023-02-23T15:07:43;4.04;84.25
67249;SHT31;63247;54.300;18.592;2023-02-23T15:10:16;4.05;84.07
67249;SHT31;63247;54.300;18.592;2023-02-23T15:12:43;4.05;84.23
67249;SHT31;63247;54.300;18.592;2023-02-23T15:15:17;4.10;83.97
67249;SHT31;63247;54.300;18.592;2023-02-23T15:17:46;4.01;84.08
67249;SHT31;63247;54.300;18.592;2023-02-23T15:20:16;3.89;84.71
67249;SHT31;63247;54.300;18.592;2023-02-23T15:22:43;3.87;85.01
67249;SHT31;63247;54.300;18.592;2023-02-23T15:25:16;3.83;85.01
67249;SHT31;63247;54.300;18.592;2023-02-23T15:27:43;3.77;85.28
67249;SHT31;63247;54.300;18.592;2023-02-23T15:30:45;3.69;85.66
67249;SHT31;63247;54.300;18.592;2023-02-23T15:33:13;3.72;86.08
67249;SHT31;63247;54.300;18.592;2023-02-23T15:38:26;3.76;86.00
67249;SHT31;63247;54.300;18.592;2023-02-23T15:41:05;3.89;86.04
67249;SHT31;63247;54.300;18.592;2023-02-23T15:43:32;3.83;86.09
67249;SHT31;63247;54.300;18.592;2023-02-23T15:46:00;3.81;86.01
67249;SHT31;63247;54.300;18.592;2023-02-23T15:48:42;3.83;85.95
67249;SHT31;63247;54.300;18.592;2023-02-23T15:51:21;3.84;85.76
67249;SHT31;63247;54.300;18.592;2023-02-23T15:53:49;3.73;85.81
67249;SHT31;63247;54.300;18.592;2023-02-23T15:56:21;3.69;86.15
67249;SHT31;63247;54.300;18.592;2023-02-23T15:58:50;3.59;86.23
67249;SHT31;63247;54.300;18.592;2023-02-23T16:01:24;3.53;86.57
67249;SHT31;63247;54.300;18.592;2023-02-23T16:03:59;3.40;87.06
67249;SHT31;63247;54.300;18.592;2023-02-23T16:06:31;3.39;87.24
67249;SHT31;63247;54.300;18.592;2023-02-23T16:11:34;3.36;87.77
67249;SHT31;63247;54.300;18.592;2023-02-23T16:14:01;3.40;87.59
67249;SHT31;63247;54.300;18.592;2023-02-23T16:16:29;3.33;87.75
67249;SHT31;63247;54.300;18.592;2023-02-23T16:18:58;3.33;87.77
67249;SHT31;63247;54.300;18.592;2023-02-23T16:21:28;3.31;88.16
67249;SHT31;63247;54.300;18.592;2023-02-23T16:23:59;3.31;88.12
67249;SHT31;63247;54.300;18.592;2023-02-23T16:26:35;3.26;88.07
67249;SHT31;63247;54.300;18.592;2023-02-23T16:29:03;3.24;88.29
67249;SHT31;63247;54.300;18.592;2023-02-23T16:31:41;3.24;88.30
67249;SHT31;63247;54.300;18.592;2023-02-23T16:34:26;3.24;88.37
67249;SHT31;63247;54.300;18.592;2023-02-23T16:36:58;3.22;88.33
67249;SHT31;63247;54.300;18.592;2023-02-23T16:39:28;3.21;88.50
67249;SHT31;63247;54.300;18.592;2023-02-23T16:41:58;3.21;88.28
67249;SHT31;63247;54.300;18.592;2023-02-23T16:44:26;3.19;88.67
67249;SHT31;63247;54.300;18.592;2023-02-23T16:49:27;3.25;88.49
67249;SHT31;63247;54.300;18.592;2023-02-23T16:51:54;3.26;88.59
67249;SHT31;63247;54.300;18.592;2023-02-23T16:54:20;3.21;88.80
67249;SHT31;63247;54.300;18.592;2023-02-23T16:56:46;3.15;88.94
67249;SHT31;63247;54.300;18.592;2023-02-23T16:59:15;3.19;88.70
67249;SHT31;63247;54.300;18.592;2023-02-23T17:01:41;3.25;88.48
67249;SHT31;63247;54.300;18.592;2023-02-23T17:04:12;3.26;88.49
67249;SHT31;63247;54.300;18.592;2023-02-23T17:06:40;3.31;88.49
67249;SHT31;63247;54.300;18.592;2023-02-23T17:09:10;3.28;88.71
67249;SHT31;63247;54.300;18.592;2023-02-23T17:11:38;3.31;88.58
67249;SHT31;63247;54.300;18.592;2023-02-23T17:14:04;3.31;88.79
67249;SHT31;63247;54.300;18.592;2023-02-23T17:16:29;3.28;88.67
67249;SHT31;63247;54.300;18.592;2023-02-23T17:18:55;3.29;88.69
67249;SHT31;63247;54.300;18.592;2023-02-23T17:21:24;3.26;89.04
67249;SHT31;63247;54.300;18.592;2023-02-23T17:23:50;3.25;89.06
67249;SHT31;63247;54.300;18.592;2023-02-23T17:26:22;3.24;88.84
67249;SHT31;63247;54.300;18.592;2023-02-23T17:28:47;3.26;88.90
67249;SHT31;63247;54.300;18.592;2023-02-23T17:31:15;3.22;88.99
67249;SHT31;63247;54.300;18.592;2023-02-23T17:33:42;3.31;88.80
67249;SHT31;63247;54.300;18.592;2023-02-23T17:36:11;3.26;88.99
67249;SHT31;63247;54.300;18.592;2023-02-23T17:38:37;3.22;89.21
67249;SHT31;63247;54.300;18.592;2023-02-23T17:41:07;3.26;89.23
67249;SHT31;63247;54.300;18.592;2023-02-23T17:43:34;3.19;89.39
67249;SHT31;63247;54.300;18.592;2023-02-23T17:46:00;3.24;89.42
67249;SHT31;63247;54.300;18.592;2023-02-23T17:48:26;3.22;89.40
67249;SHT31;63247;54.300;18.592;2023-02-23T17:50:58;3.19;89.60
67249;SHT31;63247;54.300;18.592;2023-02-23T17:53:26;3.22;89.71
67249;SHT31;63247;54.300;18.592;2023-02-23T17:55:52;3.24;89.69
67249;SHT31;63247;54.300;18.592;2023-02-23T17:58:18;3.25;89.67
67249;SHT31;63247;54.300;18.592;2023-02-23T18:00:43;3.25;89.48
67249;SHT31;63247;54.300;18.592;2023-02-23T18:03:09;3.29;89.40